createdAt,value
2023-04-11T00:02:28.574Z,21.8
2023-04-11T00:08:22.225Z,21.8
2023-04-11T00:14:14.238Z,21.8
2023-04-11T00:20:06.628Z,21.8
2023-04-11T00:25:58.729Z,21.8
2023-04-11T00:31:50.299Z,21.8
2023-04-11T00:37:41.857Z,21.8
2023-04-11T00:43:33.802Z,21.8
2023-04-11T00:49:25.391Z,21.8
2023-04-11T00:55:16.354Z,21.8
2023-04-11T01:01:08.233Z,21.8
2023-04-11T01:07:02.441Z,21.8
2023-04-11T01:12:54.487Z,21.8
2023-04-11T01:18:47.218Z,21.8
2023-04-11T01:24:08.154Z,21.8
2023-04-11T01:29:58.864Z,21.8
2023-04-11T01:35:51.758Z,21.8
2023-04-11T01:41:12.574Z,21.8
2023-04-11T01:47:03.859Z,21.8
2023-04-11T01:52:55.989Z,21.8
2023-04-11T02:04:24.646Z,21.8
2023-04-11T02:10:17.087Z,21.8
2023-04-11T02:16:08.672Z,21.8
2023-04-11T02:22:00.429Z,21.8
2023-04-11T02:27:52.990Z,21.8
2023-04-11T02:33:45.129Z,21.8
2023-04-11T02:39:35.372Z,21.7
2023-04-11T02:45:27.098Z,21.8
2023-04-11T02:51:31.375Z,21.7
2023-04-11T02:57:22.426Z,21.7
2023-04-11T03:08:51.954Z,21.7
2023-04-11T03:14:43.602Z,21.7
2023-04-11T03:20:35.857Z,21.8
2023-04-11T03:26:27.329Z,21.7
2023-04-11T03:32:18.431Z,21.8
2023-04-11T03:38:11.046Z,21.7
2023-04-11T03:43:47.243Z,21.8
2023-04-11T03:49:41.625Z,21.8
2023-04-11T03:55:36.493Z,21.7
2023-04-11T04:01:12.934Z,21.8
2023-04-11T04:07:07.215Z,21.7
2023-04-11T04:12:59.495Z,21.7
2023-04-11T04:18:51.545Z,21.7
2023-04-11T04:24:43.287Z,21.7
2023-04-11T04:30:39.924Z,21.7
2023-04-11T04:36:31.403Z,21.7
2023-04-11T04:42:23.622Z,21.7
2023-04-11T04:48:00.674Z,21.7
2023-04-11T04:59:29.182Z,21.6
2023-04-11T05:05:23.690Z,21.6
2023-04-11T05:11:15.793Z,21.6
2023-04-11T05:17:09.691Z,21.6
2023-04-11T05:23:01.796Z,21.6
2023-04-11T05:28:53.512Z,21.6
2023-04-11T05:34:44.869Z,21.6
2023-04-11T05:40:37.098Z,21.6
2023-04-11T05:46:28.008Z,21.6
2023-04-11T05:52:19.383Z,21.6
2023-04-11T05:58:11.827Z,21.6
2023-04-11T06:03:56.205Z,21.6
2023-04-11T06:09:50.545Z,21.6
2023-04-11T06:15:45.328Z,21.6
2023-04-11T06:21:36.908Z,21.6
2023-04-11T06:27:27.708Z,21.6
2023-04-11T06:33:20.202Z,21.6
2023-04-11T06:39:12.203Z,21.6
2023-04-11T06:45:04.467Z,21.6
2023-04-11T06:50:40.991Z,21.6
2023-04-11T06:56:17.707Z,21.7
2023-04-11T07:02:09.952Z,21.7
2023-04-11T07:08:07.244Z,21.7
2023-04-11T07:13:59.007Z,21.7
2023-04-11T07:19:51.375Z,21.7
2023-04-11T07:25:43.332Z,21.7
2023-04-11T07:31:38.580Z,21.7
2023-04-11T07:37:14.439Z,21.7
2023-04-11T07:43:06.273Z,21.7
2023-04-11T07:48:58.212Z,21.7
2023-04-11T07:54:49.235Z,21.7
2023-04-11T08:00:42.912Z,21.8
2023-04-11T08:06:37.123Z,21.7
2023-04-11T08:12:30.241Z,21.7
2023-04-11T08:18:33.447Z,21.7
2023-04-11T08:24:27.838Z,21.7
2023-04-11T08:30:21.313Z,21.7
2023-04-11T08:36:01.667Z,21.7
2023-04-11T08:41:54.120Z,21.7
2023-04-11T08:47:45.523Z,21.8
2023-04-11T08:53:37.201Z,21.8
2023-04-11T08:59:30.331Z,21.7
2023-04-11T09:05:22.800Z,21.8
2023-04-11T09:11:14.766Z,21.8
2023-04-11T09:17:07.689Z,21.8
2023-04-11T09:23:06.413Z,21.8
2023-04-11T09:29:01.394Z,21.8
2023-04-11T09:34:53.292Z,21.8
2023-04-11T09:40:44.646Z,21.8
2023-04-11T09:46:51.651Z,21.8
2023-04-11T09:53:15.452Z,21.8
2023-04-11T09:59:07.750Z,21.8
2023-04-11T10:05:01.748Z,21.8
2023-04-11T10:10:53.637Z,21.8
2023-04-11T10:16:44.969Z,21.8
2023-04-11T10:28:18.189Z,21.8
2023-04-11T10:34:09.759Z,21.8
2023-04-11T10:39:31.150Z,21.8
2023-04-11T10:45:23.558Z,21.8
2023-04-11T10:51:15.398Z,21.8
2023-04-11T10:57:07.168Z,21.8
2023-04-11T11:03:16.471Z,21.8
2023-04-11T11:09:15.175Z,21.8
2023-04-11T11:15:08.834Z,21.8
2023-04-11T11:21:01.177Z,21.8
2023-04-11T11:26:46.489Z,21.8
2023-04-11T11:32:38.633Z,21.8
2023-04-11T11:38:34.468Z,21.8
2023-04-11T11:44:25.569Z,21.8
2023-04-11T11:49:49.873Z,21.7
2023-04-11T11:55:44.053Z,21.7
2023-04-11T12:01:19.709Z,21.8
2023-04-11T12:07:14.858Z,21.8
2023-04-11T12:12:35.969Z,21.8
2023-04-11T12:18:30.346Z,21.8
2023-04-11T12:24:06.580Z,21.8
2023-04-11T12:30:20.983Z,21.8
2023-04-11T12:36:14.713Z,21.8
2023-04-11T12:42:49.373Z,21.8
2023-04-11T12:48:16.807Z,21.8
2023-04-11T12:54:08.557Z,21.8
2023-04-11T12:59:59.781Z,21.8
2023-04-11T13:06:02.563Z,21.8
2023-04-11T13:11:54.866Z,21.8
2023-04-11T13:18:02.496Z,21.8
2023-04-11T13:23:54.524Z,21.8
2023-04-11T13:29:47.342Z,21.8
2023-04-11T13:35:41.222Z,21.8
2023-04-11T13:41:33.314Z,21.8
2023-04-11T13:47:25.292Z,21.8
2023-04-11T13:53:01.831Z,21.8
2023-04-11T13:58:53.610Z,21.8
2023-04-11T14:05:03.338Z,21.8
2023-04-11T14:10:55.515Z,21.8
2023-04-11T14:16:58.064Z,21.7
2023-04-11T14:22:51.306Z,21.7
2023-04-11T14:28:43.799Z,21.7
2023-04-11T14:34:37.486Z,21.7
2023-04-11T14:40:29.217Z,21.7
2023-04-11T14:46:23.438Z,21.7
2023-04-11T14:52:15.670Z,21.7
2023-04-11T14:58:07.522Z,21.7
2023-04-11T15:04:00.815Z,21.7
2023-04-11T15:09:53.537Z,21.6
2023-04-11T15:15:45.622Z,21.6
2023-04-11T15:21:39.734Z,21.6
2023-04-11T15:27:31.590Z,21.6
2023-04-11T15:33:24.046Z,21.5
2023-04-11T15:39:18.499Z,21.2
2023-04-11T15:44:54.853Z,20.8
2023-04-11T15:50:47.045Z,20.6
2023-04-11T15:56:39.595Z,20.5
2023-04-11T16:02:32.113Z,20.4
2023-04-11T16:08:14.281Z,20.4
2023-04-11T16:19:42.927Z,20.7
2023-04-11T16:25:35.580Z,20.9
2023-04-11T16:31:29.337Z,21
2023-04-11T16:37:23.936Z,21.1
2023-04-11T16:53:45.598Z,21.2
2023-04-11T16:59:37.139Z,21.2
2023-04-11T17:05:31.536Z,21.3
2023-04-11T17:11:23.622Z,21.3
2023-04-11T17:16:44.751Z,21.3
2023-04-11T17:22:21.944Z,21.3
2023-04-11T17:28:13.732Z,21.3
2023-04-11T17:34:06.050Z,21.3
2023-04-11T17:39:57.549Z,21.3
2023-04-11T17:46:07.474Z,21.3
2023-04-11T17:51:52.624Z,21.3
2023-04-11T17:57:34.715Z,21.3
2023-04-11T18:03:44.101Z,21.3
2023-04-11T18:09:39.080Z,21.3
2023-04-11T18:14:59.907Z,21.3
2023-04-11T18:20:36.283Z,21.3
2023-04-11T18:25:57.523Z,21.3
2023-04-11T18:31:49.774Z,21.3
2023-04-11T18:37:57.636Z,21.3
2023-04-11T18:43:54.835Z,21.3
2023-04-11T18:49:40.693Z,21.3
2023-04-11T18:55:25.445Z,21.3
2023-04-11T19:01:34.366Z,21.3
2023-04-11T19:07:17.379Z,21.3
2023-04-11T19:12:54.713Z,21.3
2023-04-11T19:18:33.528Z,21.3
2023-04-11T19:24:12.090Z,21.3
2023-04-11T19:29:49.038Z,21.3
2023-04-11T19:35:27.466Z,21.3
2023-04-11T19:41:05.337Z,21.3
2023-04-11T19:46:28.034Z,21.3
2023-04-11T19:52:07.803Z,21.3
2023-04-11T19:57:46.167Z,21.3
2023-04-11T20:08:50.021Z,21.3
2023-04-11T20:14:28.922Z,21.3
2023-04-11T20:20:06.484Z,21.3
2023-04-11T20:25:27.455Z,21.3
2023-04-11T20:31:04.398Z,21.2
2023-04-11T20:36:42.132Z,21.2
2023-04-11T20:42:20.822Z,21.2
2023-04-11T20:47:57.967Z,21.2
2023-04-11T20:53:34.488Z,21.2
2023-04-11T20:59:10.773Z,21.2
2023-04-11T21:04:49.341Z,21.2
2023-04-11T21:10:41.078Z,21.2
2023-04-11T21:16:32.306Z,21.2
2023-04-11T21:22:23.512Z,21.3
2023-04-11T21:33:52.322Z,21.2
2023-04-11T21:39:44.213Z,21.2
2023-04-11T21:45:35.811Z,21.3
2023-04-11T21:51:28.110Z,21.3
2023-04-11T21:57:20.606Z,21.3
2023-04-11T22:03:25.908Z,21.3
2023-04-11T22:09:30.124Z,21.3
2023-04-11T22:15:32.619Z,21.3
2023-04-11T22:21:25.072Z,21.3
2023-04-11T22:27:16.902Z,21.3
2023-04-11T22:38:45.256Z,21.3
2023-04-11T22:44:37.058Z,21.3
2023-04-11T22:50:29.370Z,21.3
2023-04-11T22:56:20.294Z,21.3
2023-04-11T23:02:11.269Z,21.3
2023-04-11T23:08:03.787Z,21.3
2023-04-11T23:13:40.702Z,21.3
2023-04-11T23:19:32.482Z,21.3
2023-04-11T23:25:08.230Z,21.3
2023-04-11T23:30:59.851Z,21.3
2023-04-11T23:36:36.046Z,21.3
2023-04-11T23:57:43.173Z,21.3
